CheckWX is a tool to help pilots better visualize weather data.  It is not intended as a substitute for an official pre-flight weather briefing.

07:23:08 UTC

EVLA METAR
Liepāja International Airport
Liepāja, Latvia
Current

33 mins ago

EVLA 220650Z AUTO 20020KT 5000 OVC009/// 05/04 Q1007
Observed
Feb-22 @ 06:50 UTC
Wind
  • 200° at 20 KTS
Visibility
5,000 meters
Flight Rules
IFR
Cloud Levels
  • Overcast at 900' AGL
Temperature
C / 41°F
Dewpoint
C / 39°F
Humidity
93%
Altimeter
29.73" Hg
Pressure
1006.92 hPa
Previous

1 hour ago

EVLA 220620Z AUTO 21022KT 9999 OVC013/// 06/04 Q1008
Observed
Feb-22 @ 06:20 UTC
Wind
  • 210° at 22 KTS
Visibility
10,000+ meters
Flight Rules
MVFR
Cloud Levels
  • Overcast at 1,300' AGL
Temperature
C / 43°F
Dewpoint
C / 39°F
Humidity
87%
Altimeter
29.76" Hg
Pressure
1007.92 hPa
Previous

2 hours ago

EVLA 220550Z AUTO 21021KT 9999 OVC014/// 06/03 Q1009
Observed
Feb-22 @ 05:50 UTC
Wind
  • 210° at 21 KTS
Visibility
10,000+ meters
Flight Rules
MVFR
Cloud Levels
  • Overcast at 1,400' AGL
Temperature
C / 43°F
Dewpoint
C / 37°F
Humidity
81%
Altimeter
29.79" Hg
Pressure
1008.92 hPa